createdAt,value
2023-04-01T00:00:16.748Z,59.89
2023-04-01T00:01:22.089Z,60.68
2023-04-01T00:02:27.932Z,60.7
2023-04-01T00:03:34.053Z,60.07
2023-04-01T00:04:39.843Z,60.03
2023-04-01T00:05:45.248Z,60.66
2023-04-01T00:06:50.595Z,60.37
2023-04-01T00:07:55.965Z,60.43
2023-04-01T00:09:01.322Z,60.53
2023-04-01T00:10:06.664Z,60.57
2023-04-01T00:11:12.009Z,60.31
2023-04-01T00:12:17.367Z,60.87
2023-04-01T00:13:22.736Z,60.44
2023-04-01T00:14:28.110Z,60.72
2023-04-01T00:15:34.107Z,61.03
2023-04-01T00:16:39.774Z,60.22
2023-04-01T00:17:45.326Z,60.81
2023-04-01T00:18:50.760Z,60.09
2023-04-01T00:19:56.119Z,60.5
2023-04-01T00:21:01.485Z,60.12
2023-04-01T00:22:06.831Z,60.73
2023-04-01T00:23:12.174Z,60.1
2023-04-01T00:24:17.533Z,60.15
2023-04-01T00:25:22.883Z,60.06
2023-04-01T00:26:28.223Z,60.3
2023-04-01T00:27:33.605Z,60.07
2023-04-01T00:28:38.965Z,60.42
2023-04-01T00:29:44.346Z,60.15
2023-04-01T00:30:49.697Z,60.38
2023-04-01T00:31:55.286Z,60.38
2023-04-01T00:33:00.826Z,60.58
2023-04-01T00:34:06.202Z,60.67
2023-04-01T00:35:11.571Z,60.78
2023-04-01T00:36:17.070Z,60.3
2023-04-01T00:37:25.554Z,60.76
2023-04-01T00:38:30.885Z,61.07
2023-04-01T00:39:36.231Z,61.08
2023-04-01T00:40:41.583Z,61.28
2023-04-01T00:41:46.903Z,60.71
2023-04-01T00:42:52.278Z,60.79
2023-04-01T00:43:57.681Z,61.37
2023-04-01T00:45:03.046Z,61.52
2023-04-01T00:46:08.406Z,60.75
2023-04-01T00:47:13.979Z,60.72
2023-04-01T00:48:19.362Z,61.21
2023-04-01T00:49:24.733Z,61.75
2023-04-01T00:50:30.069Z,61.51
2023-04-01T00:51:35.444Z,61.01
2023-04-01T00:52:40.807Z,61.67
2023-04-01T00:53:46.212Z,61.69
2023-04-01T00:54:51.599Z,61.48
2023-04-01T00:55:56.906Z,61.4
2023-04-01T00:57:02.318Z,61.73
2023-04-01T00:58:07.956Z,61.15
2023-04-01T00:59:13.313Z,60.91
2023-04-01T01:00:18.672Z,61.41
2023-04-01T01:01:24.372Z,61.99
2023-04-01T01:02:30.077Z,61.19
2023-04-01T01:03:35.483Z,61.58
2023-04-01T01:04:40.871Z,61.96
2023-04-01T01:05:51.604Z,60.95
2023-04-01T01:06:57.176Z,60.94
2023-04-01T01:08:02.543Z,61.18
2023-04-01T01:09:08.005Z,61.24
2023-04-01T01:10:13.650Z,60.68
2023-04-01T01:11:19.663Z,60.86
2023-04-01T01:12:25.015Z,61.74
2023-04-01T01:13:30.356Z,61.38
2023-04-01T01:14:35.725Z,60.81
2023-04-01T01:15:41.126Z,60.89
2023-04-01T01:16:46.630Z,60.99
2023-04-01T01:17:52.132Z,60.92
2023-04-01T01:18:57.489Z,60.88
2023-04-01T01:20:05.900Z,60.82
2023-04-01T01:21:13.176Z,60.74
2023-04-01T01:22:18.567Z,60.72
2023-04-01T01:23:23.945Z,61.62
2023-04-01T01:24:29.324Z,60.99
2023-04-01T01:25:35.718Z,61.15
2023-04-01T01:26:41.079Z,60.99
2023-04-01T01:27:46.479Z,61.97
2023-04-01T01:28:51.814Z,61.39
2023-04-01T01:29:57.164Z,61.02
2023-04-01T01:31:02.755Z,61.46
2023-04-01T01:32:08.199Z,61.55
2023-04-01T01:33:13.919Z,61.12
2023-04-01T01:34:19.313Z,61.22
2023-04-01T01:35:24.643Z,61.72
2023-04-01T01:36:30.182Z,61.29
2023-04-01T01:37:35.648Z,62.51
2023-04-01T01:38:40.998Z,62.16
2023-04-01T01:39:46.325Z,61.07
2023-04-01T01:40:51.826Z,61.87
2023-04-01T01:41:57.152Z,61.77
2023-04-01T01:43:02.599Z,61.35
2023-04-01T01:44:07.969Z,61.09
2023-04-01T01:45:13.317Z,61.1
2023-04-01T01:46:18.867Z,61.27
2023-04-01T01:47:24.309Z,61.47
2023-04-01T01:48:29.710Z,61.41
2023-04-01T01:49:35.115Z,61.45
2023-04-01T01:50:40.463Z,61.08
2023-04-01T01:51:45.802Z,61.31
2023-04-01T01:52:51.187Z,61.81
2023-04-01T01:53:56.531Z,61.75
2023-04-01T01:55:01.917Z,61.02
2023-04-01T01:56:07.431Z,61.33
2023-04-01T01:57:12.910Z,61.46
2023-04-01T01:58:18.291Z,62.22
2023-04-01T01:59:23.792Z,61.37
2023-04-01T02:00:29.159Z,61.37
2023-04-01T02:01:34.709Z,61.59
2023-04-01T02:02:40.279Z,61.44
2023-04-01T02:03:45.804Z,61.31
2023-04-01T02:04:51.378Z,61.65
2023-04-01T02:05:56.802Z,61.3
2023-04-01T02:07:02.208Z,61.75
2023-04-01T02:08:07.575Z,61.8
2023-04-01T02:09:13.156Z,62.25
2023-04-01T02:10:18.512Z,62.11
2023-04-01T02:11:23.921Z,61.67
2023-04-01T02:12:29.289Z,62.17
2023-04-01T02:13:34.614Z,61.7
2023-04-01T02:14:40.018Z,61.34
2023-04-01T02:15:45.510Z,61.65
2023-04-01T02:16:50.867Z,61.38
2023-04-01T02:17:56.358Z,62.37
2023-04-01T02:19:01.741Z,62.04
2023-04-01T02:20:07.076Z,61.82
2023-04-01T02:21:12.409Z,61.97
2023-04-01T02:22:17.787Z,62.36
2023-04-01T02:23:23.170Z,62.56
2023-04-01T02:24:31.520Z,62.01
2023-04-01T02:25:37.460Z,62.66
2023-04-01T02:26:42.808Z,62.45
2023-04-01T02:27:48.208Z,61.81
2023-04-01T02:28:53.665Z,62.52
2023-04-01T02:29:59.015Z,62.14
2023-04-01T02:31:04.502Z,62.32
2023-04-01T02:32:09.940Z,62.45
2023-04-01T02:33:15.477Z,63.26
2023-04-01T02:34:20.927Z,62.13
2023-04-01T02:35:26.317Z,63.12
2023-04-01T02:36:31.742Z,62.23
2023-04-01T02:37:41.758Z,62.29
2023-04-01T02:38:47.136Z,61.86
2023-04-01T02:39:52.516Z,61.64
2023-04-01T02:40:57.865Z,62.32
2023-04-01T02:42:03.226Z,61.85
2023-04-01T02:43:08.590Z,61.8
2023-04-01T02:44:13.955Z,62.58
2023-04-01T02:45:19.302Z,61.77
2023-04-01T02:46:24.749Z,62.1
2023-04-01T02:47:30.226Z,61.97
2023-04-01T02:48:35.610Z,62.32
2023-04-01T02:49:40.972Z,62.73
2023-04-01T02:50:46.369Z,61.96
2023-04-01T02:51:51.703Z,62.38
2023-04-01T02:52:57.039Z,62.35
2023-04-01T02:54:02.385Z,63.32
2023-04-01T02:55:07.879Z,63.32
2023-04-01T02:56:13.229Z,62.35
2023-04-01T02:57:18.810Z,62.54
2023-04-01T02:58:24.199Z,62.47
2023-04-01T02:59:29.545Z,62.93
2023-04-01T03:00:34.869Z,62.62
2023-04-01T03:01:40.345Z,62.97
2023-04-01T03:02:45.972Z,62.03
2023-04-01T03:03:51.432Z,62.17
2023-04-01T03:04:56.779Z,61.86
2023-04-01T03:06:02.124Z,62.74
2023-04-01T03:07:07.450Z,63.14
2023-04-01T03:08:12.860Z,62.32
2023-04-01T03:09:18.259Z,63.25
2023-04-01T03:10:23.594Z,62.67
2023-04-01T03:11:28.999Z,62.33
2023-04-01T03:12:34.526Z,62.06
2023-04-01T03:13:39.904Z,62.34
2023-04-01T03:14:45.288Z,62.61
2023-04-01T03:15:50.832Z,62.38
2023-04-01T03:16:56.620Z,62.38
2023-04-01T03:18:02.184Z,62.25
2023-04-01T03:19:07.644Z,62.41
2023-04-01T03:20:13.100Z,62.23
2023-04-01T03:21:18.454Z,62.53
2023-04-01T03:22:23.784Z,61.79
2023-04-01T03:23:29.143Z,61.86
2023-04-01T03:24:35.545Z,61.89
2023-04-01T03:25:40.902Z,62.7
2023-04-01T03:26:46.329Z,63.11
2023-04-01T03:27:51.691Z,63.09
2023-04-01T03:28:57.070Z,62.49
2023-04-01T03:30:02.531Z,62.32
2023-04-01T03:31:08.097Z,62.9
2023-04-01T03:32:13.558Z,62.83
2023-04-01T03:33:18.952Z,62.33
2023-04-01T03:34:24.322Z,62.71
2023-04-01T03:35:29.650Z,63.19
2023-04-01T03:36:35.193Z,62.18
2023-04-01T03:37:40.547Z,62.22
2023-04-01T03:38:46.068Z,62.54
2023-04-01T03:39:51.429Z,62.13
2023-04-01T03:40:56.783Z,62.59
2023-04-01T03:42:02.131Z,63.11
2023-04-01T03:43:07.623Z,62.33
2023-04-01T03:44:13.094Z,62.64
2023-04-01T03:45:18.500Z,62.56
2023-04-01T03:46:24.081Z,62.43
2023-04-01T03:47:29.497Z,63.01
2023-04-01T03:48:34.870Z,63.15
2023-04-01T03:49:40.224Z,63.56
2023-04-01T03:50:45.602Z,62.81
2023-04-01T03:51:50.970Z,62.57
2023-04-01T03:52:56.333Z,62.69
2023-04-01T03:54:01.668Z,63.19
2023-04-01T03:55:07.003Z,63.45
2023-04-01T03:56:12.396Z,63.06
2023-04-01T03:57:17.861Z,63.22
2023-04-01T03:58:23.224Z,62.26
2023-04-01T03:59:31.204Z,62.92
2023-04-01T04:00:36.532Z,62.51
2023-04-01T04:01:41.920Z,62.61
2023-04-01T04:02:47.655Z,63.1
2023-04-01T04:03:53.538Z,62.24
2023-04-01T04:04:59.351Z,62.4
2023-04-01T04:06:04.715Z,62.5
2023-04-01T04:07:10.044Z,62.35
2023-04-01T04:08:15.461Z,62.74
2023-04-01T04:09:20.844Z,62.3
2023-04-01T04:10:26.205Z,62.7
2023-04-01T04:11:31.582Z,62.67
2023-04-01T04:12:36.938Z,62.47
2023-04-01T04:13:42.329Z,62.27
2023-04-01T04:14:47.694Z,62.11
2023-04-01T04:15:53.163Z,62
2023-04-01T04:16:58.543Z,61.82
2023-04-01T04:18:04.330Z,61.59
2023-04-01T04:19:09.684Z,61.68
2023-04-01T04:20:15.088Z,61.58
2023-04-01T04:21:20.432Z,61.28
2023-04-01T04:22:25.791Z,61.44
2023-04-01T04:23:31.172Z,61.57
2023-04-01T04:24:36.523Z,61.43
2023-04-01T04:25:41.853Z,61.41
2023-04-01T04:26:47.192Z,61.47
2023-04-01T04:27:52.558Z,61.29
2023-04-01T04:28:58.001Z,61.24
2023-04-01T04:30:03.408Z,61.37
2023-04-01T04:31:08.923Z,61.16
2023-04-01T04:32:14.401Z,61.15
2023-04-01T04:33:19.774Z,61.28
2023-04-01T04:34:25.145Z,61.08
2023-04-01T04:35:30.551Z,61.06
2023-04-01T04:36:35.960Z,60.99
2023-04-01T04:37:41.328Z,60.81
2023-04-01T04:38:46.697Z,60.97
2023-04-01T04:39:52.076Z,60.93
2023-04-01T04:40:57.439Z,60.78
2023-04-01T04:42:02.811Z,61.05
2023-04-01T04:43:08.412Z,60.93
2023-04-01T04:44:13.757Z,60.92
2023-04-01T04:45:19.131Z,61.02
2023-04-01T04:46:24.709Z,61.19
2023-04-01T04:47:30.180Z,61.14
2023-04-01T04:48:35.702Z,61.16
2023-04-01T04:49:41.090Z,61.19
2023-04-01T04:50:46.461Z,61.18
2023-04-01T04:51:51.842Z,61.37
2023-04-01T04:52:57.189Z,61.16
2023-04-01T04:54:02.562Z,61.18
2023-04-01T04:55:07.901Z,61.42
2023-04-01T04:56:13.312Z,61.52
2023-04-01T04:57:18.899Z,61.59
2023-04-01T04:58:24.432Z,61.67
2023-04-01T04:59:29.859Z,61.53
2023-04-01T05:00:35.179Z,61.63
2023-04-01T05:01:40.655Z,61.75
2023-04-01T05:02:46.380Z,61.82
2023-04-01T05:03:51.871Z,61.97
2023-04-01T05:04:57.211Z,61.82
2023-04-01T05:06:02.578Z,61.9
2023-04-01T05:07:07.997Z,61.82
2023-04-01T05:08:13.350Z,61.79
2023-04-01T05:09:18.853Z,61.68
2023-04-01T05:10:24.223Z,62.22
2023-04-01T05:11:29.596Z,62.09
2023-04-01T05:12:34.933Z,62.09
2023-04-01T05:13:40.322Z,62.12
2023-04-01T05:14:45.707Z,61.91
2023-04-01T05:15:51.041Z,61.97
2023-04-01T05:16:56.779Z,61.91
2023-04-01T05:18:02.321Z,61.95
2023-04-01T05:19:07.684Z,61.74
2023-04-01T05:20:13.133Z,61.94
2023-04-01T05:21:21.026Z,61.82
2023-04-01T05:22:26.350Z,61.74
2023-04-01T05:23:31.763Z,61.73
2023-04-01T05:24:37.154Z,61.62
2023-04-01T05:25:43.507Z,61.48
2023-04-01T05:26:48.866Z,61.73
2023-04-01T05:27:54.220Z,61.39
2023-04-01T05:28:59.579Z,61.51
2023-04-01T05:30:05.011Z,61.49
2023-04-01T05:31:10.677Z,61.77
2023-04-01T05:32:16.105Z,61.93
2023-04-01T05:33:21.518Z,61.81
2023-04-01T05:34:27.894Z,61.8
2023-04-01T05:35:33.960Z,62.23
2023-04-01T05:36:39.470Z,62.05
2023-04-01T05:37:44.901Z,61.41
2023-04-01T05:38:50.232Z,61.88
2023-04-01T05:39:55.555Z,61.6
2023-04-01T05:41:00.915Z,61.37
2023-04-01T05:42:06.277Z,61.63
2023-04-01T05:43:11.657Z,61.68
2023-04-01T05:44:16.990Z,61.73
2023-04-01T05:45:22.307Z,61.7
2023-04-01T05:46:27.913Z,61.58
2023-04-01T05:47:33.382Z,62.03
2023-04-01T05:48:38.777Z,61.66
2023-04-01T05:49:44.194Z,61.39
2023-04-01T05:50:49.585Z,61.63
2023-04-01T05:51:55.029Z,61.78
2023-04-01T05:53:00.408Z,61.76
2023-04-01T05:54:05.788Z,61.81
2023-04-01T05:55:11.137Z,62.24
2023-04-01T05:56:17.489Z,62.1
2023-04-01T05:57:25.211Z,62.21
2023-04-01T05:58:30.641Z,61.97
2023-04-01T05:59:36.016Z,62.11
2023-04-01T06:00:41.400Z,62.35
2023-04-01T06:01:46.756Z,61.92
2023-04-01T06:02:52.338Z,62.27
2023-04-01T06:03:58.376Z,62.14
2023-04-01T06:05:03.835Z,62.11
2023-04-01T06:06:09.201Z,62.01
2023-04-01T06:07:14.833Z,61.75
2023-04-01T06:08:22.823Z,61.82
2023-04-01T06:09:28.206Z,61.64
2023-04-01T06:10:33.602Z,61.72
2023-04-01T06:11:38.958Z,61.42
2023-04-01T06:12:44.383Z,61.49
2023-04-01T06:13:49.781Z,61.7
2023-04-01T06:14:55.177Z,61.32
2023-04-01T06:16:00.597Z,61.4
2023-04-01T06:17:05.965Z,61.27
2023-04-01T06:18:11.468Z,61.27
2023-04-01T06:19:16.941Z,61.11
2023-04-01T06:20:22.341Z,61.24
2023-04-01T06:21:27.752Z,61.17
2023-04-01T06:22:33.181Z,61.27
2023-04-01T06:23:38.622Z,61.21
2023-04-01T06:24:44.028Z,60.98
2023-04-01T06:25:49.459Z,61.32
2023-04-01T06:26:54.810Z,61.12
2023-04-01T06:28:00.175Z,61.1
2023-04-01T06:29:05.540Z,60.87
2023-04-01T06:30:10.925Z,60.9
2023-04-01T06:31:16.658Z,61.04
2023-04-01T06:32:22.521Z,61.32
2023-04-01T06:33:27.876Z,61.22
2023-04-01T06:34:33.251Z,61.13
2023-04-01T06:35:39.378Z,61.22
2023-04-01T06:36:44.905Z,61.2
2023-04-01T06:37:50.276Z,61.27
2023-04-01T06:38:55.644Z,61.23
2023-04-01T06:40:01.029Z,61.24
2023-04-01T06:41:06.397Z,61.26
2023-04-01T06:42:11.741Z,61.43
2023-04-01T06:43:17.068Z,61.37
2023-04-01T06:44:22.733Z,61.55
2023-04-01T06:45:28.058Z,61.59
2023-04-01T06:46:33.628Z,61.29
2023-04-01T06:47:39.148Z,61.35
2023-04-01T06:48:44.650Z,61.11
2023-04-01T06:49:49.979Z,61.09
2023-04-01T06:50:55.396Z,61.48
2023-04-01T06:52:00.780Z,61.33
2023-04-01T06:53:06.227Z,61.54
2023-04-01T06:54:11.610Z,62.04
2023-04-01T06:55:16.938Z,61.63
2023-04-01T06:56:22.268Z,62.05
2023-04-01T06:57:27.930Z,62.04
2023-04-01T06:58:33.341Z,61.91
2023-04-01T06:59:38.738Z,62.12
2023-04-01T07:00:44.371Z,62.24
2023-04-01T07:01:50.021Z,62.18
2023-04-01T07:02:55.570Z,62.11
2023-04-01T07:04:01.005Z,62.18
2023-04-01T07:05:06.369Z,62.34
2023-04-01T07:06:11.890Z,62.13
2023-04-01T07:07:17.249Z,62.3
2023-04-01T07:08:22.815Z,62.62
2023-04-01T07:09:28.162Z,62.51
2023-04-01T07:10:33.514Z,62.39
2023-04-01T07:11:38.851Z,62.31
2023-04-01T07:12:44.278Z,62.47
2023-04-01T07:13:49.709Z,62.62
2023-04-01T07:14:55.041Z,62.69
2023-04-01T07:16:00.710Z,62.39
2023-04-01T07:17:06.186Z,62.48
2023-04-01T07:18:11.832Z,62.43
2023-04-01T07:19:17.202Z,62.32
2023-04-01T07:20:22.567Z,62.19
2023-04-01T07:21:27.923Z,60.21
2023-04-01T07:22:33.263Z,60.07
2023-04-01T07:23:38.599Z,60.84
2023-04-01T07:24:43.992Z,59.31
2023-04-01T07:25:49.376Z,59.07
2023-04-01T07:26:54.713Z,59.5
2023-04-01T07:28:00.115Z,59.2
2023-04-01T07:29:05.488Z,59.93
2023-04-01T07:30:10.824Z,59.99
2023-04-01T07:31:16.309Z,60.07
2023-04-01T07:32:21.742Z,60.06
2023-04-01T07:33:27.198Z,60.14
2023-04-01T07:34:32.577Z,60.05
2023-04-01T07:35:38.497Z,60.05
2023-04-01T07:36:43.865Z,59.97
2023-04-01T07:37:49.185Z,59.9
2023-04-01T07:38:54.679Z,59.71
2023-04-01T07:40:00.353Z,59.79
2023-04-01T07:41:05.725Z,59.67
2023-04-01T07:42:11.068Z,59.58
2023-04-01T07:43:16.426Z,59.51
2023-04-01T07:44:21.769Z,59.39
2023-04-01T07:45:27.984Z,59.34
2023-04-01T07:46:33.461Z,59.25
2023-04-01T07:47:39.085Z,59.26
2023-04-01T07:48:44.492Z,59.18
2023-04-01T07:49:49.831Z,59.17
2023-04-01T07:50:57.002Z,59.16
2023-04-01T07:52:02.400Z,59.04
2023-04-01T07:53:07.789Z,59.13
2023-04-01T07:54:13.119Z,59.08
2023-04-01T07:55:18.493Z,59.09
2023-04-01T07:56:23.830Z,59.02
2023-04-01T07:57:29.375Z,59.15
2023-04-01T07:58:34.791Z,59.08
2023-04-01T07:59:40.124Z,58.93
2023-04-01T08:00:45.501Z,59.05
2023-04-01T08:01:50.860Z,58.89
2023-04-01T08:02:57.715Z,58.86
2023-04-01T08:04:03.846Z,58.87
2023-04-01T08:05:09.373Z,58.86
2023-04-01T08:06:14.716Z,58.9
2023-04-01T08:07:20.044Z,58.87
2023-04-01T08:08:25.440Z,58.84
2023-04-01T08:09:30.801Z,58.9
2023-04-01T08:10:36.138Z,58.85
2023-04-01T08:11:43.956Z,58.88
2023-04-01T08:12:49.353Z,58.79
2023-04-01T08:13:54.734Z,58.93
2023-04-01T08:15:00.124Z,58.73
2023-04-01T08:16:05.690Z,58.81
2023-04-01T08:17:11.104Z,58.88
2023-04-01T08:18:16.471Z,58.91
2023-04-01T08:19:21.866Z,58.91
2023-04-01T08:20:27.241Z,58.88
2023-04-01T08:21:32.577Z,58.8
2023-04-01T08:22:37.902Z,58.58
2023-04-01T08:23:43.245Z,58.73
2023-04-01T08:24:50.825Z,58.6
2023-04-01T08:25:56.363Z,58.53
2023-04-01T08:27:01.721Z,58.55
2023-04-01T08:28:07.075Z,58.59
2023-04-01T08:29:12.452Z,58.69
2023-04-01T08:30:17.800Z,58.48
2023-04-01T08:31:23.245Z,58.54
2023-04-01T08:32:28.766Z,58.6
2023-04-01T08:33:34.218Z,58.71
2023-04-01T08:34:39.622Z,58.64
2023-04-01T08:35:46.867Z,58.48
2023-04-01T08:36:52.324Z,58.46
2023-04-01T08:37:57.651Z,58.5
2023-04-01T08:39:03.006Z,58.47
2023-04-01T08:40:08.385Z,58.58
2023-04-01T08:41:13.764Z,58.48
2023-04-01T08:42:19.124Z,58.41
2023-04-01T08:43:24.504Z,58.71
2023-04-01T08:44:29.887Z,58.67
2023-04-01T08:45:36.211Z,58.49
2023-04-01T08:46:41.753Z,58.44
2023-04-01T08:47:47.220Z,58.31
2023-04-01T08:48:52.618Z,58.4
2023-04-01T08:49:57.947Z,58.34
2023-04-01T08:51:05.302Z,58.59
2023-04-01T08:52:12.777Z,58.47
2023-04-01T08:53:18.221Z,58.85
2023-04-01T08:54:23.619Z,58.99
2023-04-01T08:55:28.986Z,58.64
2023-04-01T08:56:34.307Z,59.11
2023-04-01T08:57:39.699Z,59.02
2023-04-01T08:58:45.050Z,59.03
2023-04-01T08:59:50.388Z,59.15
2023-04-01T09:00:55.902Z,59.29
2023-04-01T09:02:01.514Z,58.75
2023-04-01T09:03:07.431Z,58.62
2023-04-01T09:04:13.005Z,58.73
2023-04-01T09:05:18.469Z,59.19
2023-04-01T09:06:23.878Z,59.1
2023-04-01T09:07:29.635Z,59.26
2023-04-01T09:08:35.030Z,59.17
2023-04-01T09:09:40.456Z,59.05
2023-04-01T09:10:45.804Z,59.16
2023-04-01T09:11:54.330Z,58.81
2023-04-01T09:12:59.744Z,58.79
2023-04-01T09:14:05.082Z,59.17
2023-04-01T09:15:10.424Z,59.34
2023-04-01T09:16:16.076Z,59.06
2023-04-01T09:17:21.538Z,59.05
2023-04-01T09:18:26.984Z,59.3
2023-04-01T09:19:32.324Z,59.15
2023-04-01T09:20:37.666Z,59.44
2023-04-01T09:21:43.017Z,59.37
2023-04-01T09:22:48.629Z,59.04
2023-04-01T09:23:54.009Z,59.49
2023-04-01T09:24:59.365Z,59.5
2023-04-01T09:26:04.742Z,59.59
2023-04-01T09:27:10.088Z,59.24
2023-04-01T09:28:15.483Z,59.23
2023-04-01T09:29:20.924Z,59.08
2023-04-01T09:30:26.299Z,58.91
2023-04-01T09:31:31.955Z,59.19
2023-04-01T09:32:37.430Z,59.11
2023-04-01T09:33:42.776Z,59.21
2023-04-01T09:34:48.143Z,59.61
2023-04-01T09:35:53.557Z,59.21
2023-04-01T09:36:59.994Z,59.5
2023-04-01T09:38:05.355Z,59.59
2023-04-01T09:39:10.675Z,59.78
2023-04-01T09:40:16.028Z,59.36
2023-04-01T09:41:21.572Z,59.31
2023-04-01T09:42:26.909Z,59.62
2023-04-01T09:43:32.299Z,59.64
2023-04-01T09:44:37.642Z,59.3
2023-04-01T09:45:43.015Z,59.42
2023-04-01T09:46:48.487Z,59.5
2023-04-01T09:47:54.071Z,59.29
2023-04-01T09:48:59.459Z,59.35
2023-04-01T09:50:04.802Z,59.46
2023-04-01T09:51:10.156Z,59.41
2023-04-01T09:52:15.549Z,59.5
2023-04-01T09:53:20.936Z,59.66
2023-04-01T09:54:26.256Z,59.36
2023-04-01T09:55:31.853Z,59.49
2023-04-01T09:56:37.336Z,59.56
2023-04-01T09:57:42.809Z,59.43
2023-04-01T09:58:48.162Z,59.22
2023-04-01T09:59:53.513Z,59.05
2023-04-01T10:00:58.895Z,58.82
2023-04-01T10:02:04.361Z,59.04
2023-04-01T10:03:09.947Z,59
2023-04-01T10:04:15.304Z,59.15
2023-04-01T10:05:20.787Z,58.87
2023-04-01T10:06:26.147Z,59.15
2023-04-01T10:07:31.549Z,58.72
2023-04-01T10:08:36.904Z,59.04
2023-04-01T10:09:42.228Z,59.02
2023-04-01T10:10:47.611Z,58.95
2023-04-01T10:11:53.045Z,58.83
2023-04-01T10:12:58.500Z,59.16
2023-04-01T10:14:03.910Z,59.28
2023-04-01T10:15:09.402Z,58.9
2023-04-01T10:16:14.892Z,59.03
2023-04-01T10:17:23.384Z,59.14
2023-04-01T10:18:28.808Z,58.59
2023-04-01T10:19:34.399Z,58.7
2023-04-01T10:20:39.741Z,58.94
2023-04-01T10:21:45.090Z,58.9
2023-04-01T10:22:50.571Z,58.63
2023-04-01T10:23:55.896Z,58.69
2023-04-01T10:25:01.237Z,58.93
2023-04-01T10:26:06.631Z,58.99
2023-04-01T10:27:11.961Z,58.98
2023-04-01T10:28:17.331Z,59.06
2023-04-01T10:29:22.743Z,58.9
2023-04-01T10:30:28.143Z,58.86
2023-04-01T10:31:33.674Z,58.6
2023-04-01T10:32:39.225Z,58.74
2023-04-01T10:33:44.653Z,58.86
2023-04-01T10:34:50.115Z,58.72
2023-04-01T10:35:55.682Z,58.75
2023-04-01T10:37:01.029Z,58.48
2023-04-01T10:38:06.495Z,58.82
2023-04-01T10:39:11.858Z,58.64
2023-04-01T10:40:17.349Z,58.53
2023-04-01T10:41:22.703Z,58.6
2023-04-01T10:42:28.111Z,58.6
2023-04-01T10:43:33.499Z,58.79
2023-04-01T10:44:39.266Z,58.91
2023-04-01T10:45:44.757Z,58.61
2023-04-01T10:46:50.128Z,58.6
2023-04-01T10:47:55.646Z,58.68
2023-04-01T10:49:01.011Z,58.55
2023-04-01T10:50:06.388Z,58.65
2023-04-01T10:51:11.719Z,58.62
2023-04-01T10:52:17.093Z,58.66
2023-04-01T10:53:22.458Z,58.76
2023-04-01T10:54:27.829Z,58.7
2023-04-01T10:55:33.837Z,59
2023-04-01T10:56:40.402Z,58.57
2023-04-01T10:57:45.753Z,58.66
2023-04-01T10:58:51.145Z,58.56
2023-04-01T10:59:56.490Z,58.91
2023-04-01T11:01:02.014Z,58.68
2023-04-01T11:02:14.241Z,58.68
2023-04-01T11:03:20.065Z,58.8
2023-04-01T11:04:25.526Z,58.8
2023-04-01T11:05:30.990Z,59.24
2023-04-01T11:06:36.502Z,59.32
2023-04-01T11:07:41.836Z,59.15
2023-04-01T11:08:49.501Z,58.8
2023-04-01T11:09:54.870Z,58.71
2023-04-01T11:11:00.236Z,58.78
2023-04-01T11:12:05.595Z,59.05
2023-04-01T11:13:10.939Z,58.7
2023-04-01T11:14:16.300Z,59.04
2023-04-01T11:15:21.685Z,59.17
2023-04-01T11:16:27.333Z,59.46
2023-04-01T11:17:32.823Z,59.16
2023-04-01T11:18:38.199Z,58.75
2023-04-01T11:19:43.777Z,58.66
2023-04-01T11:20:49.125Z,59.15
2023-04-01T11:21:54.737Z,58.84
2023-04-01T11:23:00.110Z,59.42
2023-04-01T11:24:08.432Z,59.25
2023-04-01T11:25:16.127Z,59.16
2023-04-01T11:26:21.462Z,59.5
2023-04-01T11:27:26.940Z,59.36
2023-04-01T11:28:32.338Z,59.35
2023-04-01T11:29:40.506Z,58.87
2023-04-01T11:30:49.701Z,59.06
2023-04-01T11:31:55.406Z,59.25
2023-04-01T11:33:01.088Z,59.2
2023-04-01T11:34:06.504Z,59.41
2023-04-01T11:35:11.950Z,59.04
2023-04-01T11:36:17.438Z,58.78
2023-04-01T11:37:22.925Z,58.94
2023-04-01T11:38:28.278Z,59.64
2023-04-01T11:39:33.636Z,59.61
2023-04-01T11:40:39.012Z,59.29
2023-04-01T11:41:44.338Z,59.67
2023-04-01T11:42:49.737Z,59.31
2023-04-01T11:43:55.119Z,58.84
2023-04-01T11:45:00.647Z,59.08
2023-04-01T11:46:06.139Z,59.01
2023-04-01T11:47:11.535Z,59.01
2023-04-01T11:48:17.031Z,58.78
2023-04-01T11:49:22.397Z,60.18
2023-04-01T11:50:27.766Z,59.45
2023-04-01T11:51:33.142Z,59.45
2023-04-01T11:52:38.511Z,59.06
2023-04-01T11:53:43.858Z,58.98
2023-04-01T11:54:49.201Z,59.29
2023-04-01T11:55:54.709Z,59.38
2023-04-01T11:57:00.423Z,59.31
2023-04-01T11:58:05.810Z,59.29
2023-04-01T11:59:11.171Z,59.21
2023-04-01T12:00:16.516Z,59.09
2023-04-01T12:01:21.892Z,58.64
2023-04-01T12:02:27.476Z,58.55
2023-04-01T12:03:33.423Z,58.65
2023-04-01T12:04:38.998Z,58.56
2023-04-01T12:05:44.377Z,58.41
2023-04-01T12:06:49.739Z,58.59
2023-04-01T12:07:57.617Z,58.5
2023-04-01T12:09:02.977Z,59.07
2023-04-01T12:10:08.324Z,59.14
2023-04-01T12:11:13.697Z,59.15
2023-04-01T12:12:19.039Z,59.33
2023-04-01T12:13:24.632Z,59.34
2023-04-01T12:14:30.000Z,59.39
2023-04-01T12:15:36.130Z,59.25
2023-04-01T12:16:41.822Z,59.1
2023-04-01T12:17:47.432Z,59.32
2023-04-01T12:18:52.772Z,59.34
2023-04-01T12:19:58.451Z,58.94
2023-04-01T12:21:03.807Z,58.9
2023-04-01T12:22:09.197Z,58.63
2023-04-01T12:23:14.551Z,58.66
2023-04-01T12:24:19.916Z,58.69
2023-04-01T12:25:28.422Z,58.56
2023-04-01T12:26:33.782Z,58.57
2023-04-01T12:27:39.209Z,58.58
2023-04-01T12:28:44.789Z,58.61
2023-04-01T12:29:50.140Z,58.7
2023-04-01T12:30:55.682Z,58.89
2023-04-01T12:32:01.371Z,58.68
2023-04-01T12:33:07.055Z,59.02
2023-04-01T12:34:12.485Z,58.81
2023-04-01T12:35:17.815Z,58.85
2023-04-01T12:36:23.167Z,58.64
2023-04-01T12:37:28.508Z,58.85
2023-04-01T12:38:33.945Z,58.75
2023-04-01T12:39:39.279Z,58.65
2023-04-01T12:40:44.665Z,58.68
2023-04-01T12:41:50.046Z,58.61
2023-04-01T12:42:55.412Z,58.85
2023-04-01T12:44:00.819Z,58.79
2023-04-01T12:45:06.153Z,58.76
2023-04-01T12:46:11.813Z,58.94
2023-04-01T12:47:17.195Z,58.97
2023-04-01T12:48:22.670Z,59.02
2023-04-01T12:49:28.031Z,58.8
2023-04-01T12:50:33.377Z,58.83
2023-04-01T12:51:38.713Z,58.88
2023-04-01T12:52:44.064Z,58.8
2023-04-01T12:53:49.516Z,58.88
2023-04-01T12:54:54.880Z,58.79
2023-04-01T12:56:00.286Z,59.11
2023-04-01T12:57:05.724Z,58.99
2023-04-01T12:58:11.139Z,58.69
2023-04-01T12:59:16.497Z,59.01
2023-04-01T13:00:21.860Z,58.73
2023-04-01T13:01:27.291Z,58.86
2023-04-01T13:02:32.813Z,58.83
2023-04-01T13:03:38.455Z,59.22
2023-04-01T13:04:43.808Z,59.19
2023-04-01T13:05:49.180Z,59.18
2023-04-01T13:06:54.532Z,59.3
2023-04-01T13:08:00.029Z,59.08
2023-04-01T13:09:05.394Z,59.42
2023-04-01T13:10:10.810Z,59.33
2023-04-01T13:11:16.184Z,58.85
2023-04-01T13:12:21.658Z,59.15
2023-04-01T13:13:27.053Z,59.21
2023-04-01T13:14:34.795Z,59.39
2023-04-01T13:15:40.313Z,59.61
2023-04-01T13:16:45.695Z,59.69
2023-04-01T13:17:51.229Z,59.86
2023-04-01T13:18:56.575Z,59.79
2023-04-01T13:20:08.768Z,59.53
2023-04-01T13:21:14.147Z,59.4
2023-04-01T13:22:19.544Z,59.67
2023-04-01T13:23:24.922Z,59.67
2023-04-01T13:24:30.282Z,59.58
2023-04-01T13:25:35.627Z,59.74
2023-04-01T13:26:40.983Z,59.65
2023-04-01T13:27:46.348Z,59.58
2023-04-01T13:28:51.710Z,59.48
2023-04-01T13:29:57.075Z,59.33
2023-04-01T13:31:02.612Z,59.03
2023-04-01T13:32:08.054Z,58.86
2023-04-01T13:33:14.729Z,58.8
2023-04-01T13:34:20.210Z,58.8
2023-04-01T13:35:25.596Z,58.93
2023-04-01T13:36:30.972Z,58.68
2023-04-01T13:37:38.889Z,59.27
2023-04-01T13:38:44.300Z,59.02
2023-04-01T13:39:49.650Z,58.83
2023-04-01T13:41:07.882Z,58.61
2023-04-01T13:42:13.317Z,59.21
2023-04-01T13:43:18.657Z,58.66
2023-04-01T13:44:24.000Z,59.13
2023-04-01T13:45:29.435Z,58.87
2023-04-01T13:46:34.932Z,58.85
2023-04-01T13:47:40.520Z,59.37
2023-04-01T13:48:45.902Z,59.31
2023-04-01T13:49:51.274Z,58.95
2023-04-01T13:50:56.646Z,59.41
2023-04-01T13:52:02.028Z,58.82
2023-04-01T13:53:07.393Z,59.43
2023-04-01T13:54:12.738Z,58.85
2023-04-01T13:55:18.105Z,59.22
2023-04-01T13:56:23.448Z,59.12
2023-04-01T13:57:30.007Z,58.81
2023-04-01T13:58:35.415Z,58.67
2023-04-01T13:59:40.762Z,59.12
2023-04-01T14:00:46.234Z,58.73
2023-04-01T14:01:51.746Z,59.13
2023-04-01T14:02:59.137Z,59.12
2023-04-01T14:04:04.794Z,59.19
2023-04-01T14:05:10.171Z,59.31
2023-04-01T14:06:15.513Z,59.21
2023-04-01T14:07:20.898Z,59.01